sensor_id;sensor_type;location;lat;lon;timestamp;temperature;humidity
1978;DHT22;989;53.016;8.346;2022-11-15T00:01:53;6.60;97.10
1978;DHT22;989;53.016;8.346;2022-11-15T00:04:19;6.50;97.60
1978;DHT22;989;53.016;8.346;2022-11-15T00:06:45;6.50;98.30
1978;DHT22;989;53.016;8.346;2022-11-15T00:09:10;6.40;99.60
1978;DHT22;989;53.016;8.346;2022-11-15T00:11:36;6.40;99.80
1978;DHT22;989;53.016;8.346;2022-11-15T00:14:01;6.30;99.90
1978;DHT22;989;53.016;8.346;2022-11-15T00:16:28;6.30;99.90
1978;DHT22;989;53.016;8.346;2022-11-15T00:18:54;6.10;99.90
1978;DHT22;989;53.016;8.346;2022-11-15T00:21:19;5.90;99.90
1978;DHT22;989;53.016;8.346;2022-11-15T00:23:45;5.90;99.90
1978;DHT22;989;53.016;8.346;2022-11-15T00:26:14;5.90;99.90
1978;DHT22;989;53.016;8.346;2022-11-15T00:28:41;5.90;99.90
1978;DHT22;989;53.016;8.346;2022-11-15T00:31:10;5.90;99.90
1978;DHT22;989;53.016;8.346;2022-11-15T00:33:37;5.80;99.90
1978;DHT22;989;53.016;8.346;2022-11-15T00:36:07;5.70;99.90
1978;DHT22;989;53.016;8.346;2022-11-15T00:38:38;5.80;99.90
1978;DHT22;989;53.016;8.346;2022-11-15T00:41:05;5.70;99.90
1978;DHT22;989;53.016;8.346;2022-11-15T00:43:32;5.60;99.90
1978;DHT22;989;53.016;8.346;2022-11-15T00:45:59;5.60;99.90
1978;DHT22;989;53.016;8.346;2022-11-15T00:48:24;5.60;99.90
1978;DHT22;989;53.016;8.346;2022-11-15T00:50:50;5.60;99.90
1978;DHT22;989;53.016;8.346;2022-11-15T00:53:16;5.60;99.90
1978;DHT22;989;53.016;8.346;2022-11-15T00:55:42;5.50;99.90
1978;DHT22;989;53.016;8.346;2022-11-15T00:58:08;5.50;99.90
1978;DHT22;989;53.016;8.346;2022-11-15T01:00:34;5.40;99.90
1978;DHT22;989;53.016;8.346;2022-11-15T01:03:01;5.30;99.90
1978;DHT22;989;53.016;8.346;2022-11-15T01:05:27;5.30;99.90
1978;DHT22;989;53.016;8.346;2022-11-15T01:07:56;5.20;99.90
1978;DHT22;989;53.016;8.346;2022-11-15T01:10:23;5.20;99.90
1978;DHT22;989;53.016;8.346;2022-11-15T01:12:49;5.10;99.90
1978;DHT22;989;53.016;8.346;2022-11-15T01:15:15;5.10;99.90
1978;DHT22;989;53.016;8.346;2022-11-15T01:17:40;5.10;99.90
1978;DHT22;989;53.016;8.346;2022-11-15T01:20:06;5.10;99.90
1978;DHT22;989;53.016;8.346;2022-11-15T01:22:33;5.20;99.90
1978;DHT22;989;53.016;8.346;2022-11-15T01:24:58;5.20;99.90
1978;DHT22;989;53.016;8.346;2022-11-15T01:27:24;5.10;99.90
1978;DHT22;989;53.016;8.346;2022-11-15T01:29:50;5.20;99.90
1978;DHT22;989;53.016;8.346;2022-11-15T01:32:16;5.30;99.90
1978;DHT22;989;53.016;8.346;2022-11-15T01:34:42;5.40;99.90
1978;DHT22;989;53.016;8.346;2022-11-15T01:37:07;5.50;99.90
1978;DHT22;989;53.016;8.346;2022-11-15T01:39:33;5.70;99.90
1978;DHT22;989;53.016;8.346;2022-11-15T01:41:59;5.90;99.90
1978;DHT22;989;53.016;8.346;2022-11-15T01:47:02;6.30;99.90
1978;DHT22;989;53.016;8.346;2022-11-15T01:49:32;6.40;99.90
1978;DHT22;989;53.016;8.346;2022-11-15T01:52:02;6.50;99.90
1978;DHT22;989;53.016;8.346;2022-11-15T01:54:29;6.60;99.90
1978;DHT22;989;53.016;8.346;2022-11-15T01:57:08;6.70;99.90
1978;DHT22;989;53.016;8.346;2022-11-15T01:59:37;6.80;99.90
1978;DHT22;989;53.016;8.346;2022-11-15T02:02:03;6.90;99.90
1978;DHT22;989;53.016;8.346;2022-11-15T02:04:32;7.00;99.90
1978;DHT22;989;53.016;8.346;2022-11-15T02:06:59;7.10;99.90
1978;DHT22;989;53.016;8.346;2022-11-15T02:09:30;7.10;99.90
1978;DHT22;989;53.016;8.346;2022-11-15T02:11:56;7.20;99.90
1978;DHT22;989;53.016;8.346;2022-11-15T02:14:23;7.30;99.90
1978;DHT22;989;53.016;8.346;2022-11-15T02:17:17;7.40;99.90
1978;DHT22;989;53.016;8.346;2022-11-15T02:25:48;7.50;99.90
1978;DHT22;989;53.016;8.346;2022-11-15T02:28:44;7.60;99.90
1978;DHT22;989;53.016;8.346;2022-11-15T02:31:29;7.60;99.90
1978;DHT22;989;53.016;8.346;2022-11-15T02:34:14;7.70;99.90
1978;DHT22;989;53.016;8.346;2022-11-15T02:36:54;7.70;99.90
1978;DHT22;989;53.016;8.346;2022-11-15T02:42:21;7.80;99.90
1978;DHT22;989;53.016;8.346;2022-11-15T02:45:11;7.90;99.10
1978;DHT22;989;53.016;8.346;2022-11-15T02:47:46;7.90;95.90
1978;DHT22;989;53.016;8.346;2022-11-15T02:50:16;8.00;94.30
1978;DHT22;989;53.016;8.346;2022-11-15T02:52:51;8.00;93.70
1978;DHT22;989;53.016;8.346;2022-11-15T02:55:37;8.00;92.90
1978;DHT22;989;53.016;8.346;2022-11-15T02:58:35;8.20;92.60
1978;DHT22;989;53.016;8.346;2022-11-15T03:01:24;8.20;90.30
1978;DHT22;989;53.016;8.346;2022-11-15T03:04:54;8.20;90.00
1978;DHT22;989;53.016;8.346;2022-11-15T03:07:39;8.30;88.50
1978;DHT22;989;53.016;8.346;2022-11-15T03:10:09;8.40;85.90
1978;DHT22;989;53.016;8.346;2022-11-15T03:12:48;8.40;83.00
1978;DHT22;989;53.016;8.346;2022-11-15T03:15:43;8.40;78.40
1978;DHT22;989;53.016;8.346;2022-11-15T03:18:23;8.40;77.80
1978;DHT22;989;53.016;8.346;2022-11-15T03:20:54;8.50;77.50
1978;DHT22;989;53.016;8.346;2022-11-15T03:23:21;8.50;81.10
1978;DHT22;989;53.016;8.346;2022-11-15T03:25:48;8.60;80.60
1978;DHT22;989;53.016;8.346;2022-11-15T03:28:22;8.70;77.00
1978;DHT22;989;53.016;8.346;2022-11-15T03:30:52;8.70;76.00
1978;DHT22;989;53.016;8.346;2022-11-15T03:33:20;8.70;74.20
1978;DHT22;989;53.016;8.346;2022-11-15T03:35:47;8.70;72.40
1978;DHT22;989;53.016;8.346;2022-11-15T03:38:25;8.70;74.00
1978;DHT22;989;53.016;8.346;2022-11-15T03:40:58;8.80;74.30
1978;DHT22;989;53.016;8.346;2022-11-15T03:43:49;8.80;72.90
1978;DHT22;989;53.016;8.346;2022-11-15T03:46:27;8.80;70.90
1978;DHT22;989;53.016;8.346;2022-11-15T03:49:09;8.80;72.30
1978;DHT22;989;53.016;8.346;2022-11-15T03:51:37;8.80;72.90
1978;DHT22;989;53.016;8.346;2022-11-15T03:54:06;8.90;73.30
1978;DHT22;989;53.016;8.346;2022-11-15T03:56:32;8.90;71.80
1978;DHT22;989;53.016;8.346;2022-11-15T03:58:57;8.90;69.00
1978;DHT22;989;53.016;8.346;2022-11-15T04:01:23;8.90;70.60
1978;DHT22;989;53.016;8.346;2022-11-15T04:03:49;8.90;71.10
1978;DHT22;989;53.016;8.346;2022-11-15T04:06:14;8.90;75.20
1978;DHT22;989;53.016;8.346;2022-11-15T04:08:40;9.00;72.30
1978;DHT22;989;53.016;8.346;2022-11-15T04:11:05;9.10;74.10
1978;DHT22;989;53.016;8.346;2022-11-15T04:13:31;9.00;70.60
1978;DHT22;989;53.016;8.346;2022-11-15T04:15:57;9.10;72.80
1978;DHT22;989;53.016;8.346;2022-11-15T04:18:22;9.10;72.60
1978;DHT22;989;53.016;8.346;2022-11-15T04:20:49;9.10;71.90
1978;DHT22;989;53.016;8.346;2022-11-15T04:23:33;9.10;74.70
1978;DHT22;989;53.016;8.346;2022-11-15T04:26:31;9.10;75.10
1978;DHT22;989;53.016;8.346;2022-11-15T04:28:57;9.10;74.90
1978;DHT22;989;53.016;8.346;2022-11-15T04:31:42;9.20;75.70
1978;DHT22;989;53.016;8.346;2022-11-15T04:34:07;9.20;74.70
1978;DHT22;989;53.016;8.346;2022-11-15T04:36:33;9.20;74.80
1978;DHT22;989;53.016;8.346;2022-11-15T04:39:17;9.20;75.60
1978;DHT22;989;53.016;8.346;2022-11-15T04:41:43;9.30;77.90
1978;DHT22;989;53.016;8.346;2022-11-15T04:44:08;9.30;76.50
1978;DHT22;989;53.016;8.346;2022-11-15T04:46:35;9.30;76.60
1978;DHT22;989;53.016;8.346;2022-11-15T04:49:01;9.40;76.70
1978;DHT22;989;53.016;8.346;2022-11-15T04:51:26;9.40;76.30
1978;DHT22;989;53.016;8.346;2022-11-15T04:53:52;9.50;77.60
1978;DHT22;989;53.016;8.346;2022-11-15T04:56:18;9.50;74.80
1978;DHT22;989;53.016;8.346;2022-11-15T04:58:44;9.50;76.30
1978;DHT22;989;53.016;8.346;2022-11-15T05:01:11;9.70;75.90
1978;DHT22;989;53.016;8.346;2022-11-15T05:03:40;9.70;76.80
1978;DHT22;989;53.016;8.346;2022-11-15T05:06:27;9.70;73.40
1978;DHT22;989;53.016;8.346;2022-11-15T05:08:54;9.70;72.90
1978;DHT22;989;53.016;8.346;2022-11-15T05:11:20;9.70;73.80
1978;DHT22;989;53.016;8.346;2022-11-15T05:13:46;9.80;76.30
1978;DHT22;989;53.016;8.346;2022-11-15T05:16:11;9.90;74.60
1978;DHT22;989;53.016;8.346;2022-11-15T05:18:37;9.80;71.70
1978;DHT22;989;53.016;8.346;2022-11-15T05:21:12;9.80;74.20
1978;DHT22;989;53.016;8.346;2022-11-15T05:23:39;9.80;74.80
1978;DHT22;989;53.016;8.346;2022-11-15T05:26:06;9.80;77.20
1978;DHT22;989;53.016;8.346;2022-11-15T05:28:33;9.80;76.80
1978;DHT22;989;53.016;8.346;2022-11-15T05:31:07;9.80;76.10
1978;DHT22;989;53.016;8.346;2022-11-15T05:33:37;9.80;75.90
1978;DHT22;989;53.016;8.346;2022-11-15T05:36:15;9.90;76.50
1978;DHT22;989;53.016;8.346;2022-11-15T05:38:45;9.90;77.30
1978;DHT22;989;53.016;8.346;2022-11-15T05:41:11;10.00;76.10
1978;DHT22;989;53.016;8.346;2022-11-15T05:43:39;10.00;74.60
1978;DHT22;989;53.016;8.346;2022-11-15T05:46:06;10.00;75.60
1978;DHT22;989;53.016;8.346;2022-11-15T05:48:33;10.00;75.50
1978;DHT22;989;53.016;8.346;2022-11-15T05:50:59;10.10;74.30
1978;DHT22;989;53.016;8.346;2022-11-15T05:53:26;10.10;74.30
1978;DHT22;989;53.016;8.346;2022-11-15T05:55:52;10.00;76.50
1978;DHT22;989;53.016;8.346;2022-11-15T05:58:19;10.10;77.50
1978;DHT22;989;53.016;8.346;2022-11-15T06:00:45;10.20;77.20
1978;DHT22;989;53.016;8.346;2022-11-15T06:03:11;10.20;75.40
1978;DHT22;989;53.016;8.346;2022-11-15T06:05:39;10.30;76.50
1978;DHT22;989;53.016;8.346;2022-11-15T06:08:05;10.30;73.00
1978;DHT22;989;53.016;8.346;2022-11-15T06:10:32;10.30;72.90
1978;DHT22;989;53.016;8.346;2022-11-15T06:12:59;10.40;75.40
1978;DHT22;989;53.016;8.346;2022-11-15T06:15:25;10.40;74.00
1978;DHT22;989;53.016;8.346;2022-11-15T06:17:51;10.40;75.00
1978;DHT22;989;53.016;8.346;2022-11-15T06:20:17;10.40;73.40
1978;DHT22;989;53.016;8.346;2022-11-15T06:22:43;10.30;74.60
1978;DHT22;989;53.016;8.346;2022-11-15T06:25:09;10.20;77.80
1978;DHT22;989;53.016;8.346;2022-11-15T06:27:35;10.30;82.00
1978;DHT22;989;53.016;8.346;2022-11-15T06:30:00;10.20;81.60
1978;DHT22;989;53.016;8.346;2022-11-15T06:32:26;10.20;82.00
1978;DHT22;989;53.016;8.346;2022-11-15T06:34:52;10.10;82.40
1978;DHT22;989;53.016;8.346;2022-11-15T06:37:17;10.10;86.70
1978;DHT22;989;53.016;8.346;2022-11-15T06:39:43;10.10;88.40
1978;DHT22;989;53.016;8.346;2022-11-15T06:42:09;10.00;90.00
1978;DHT22;989;53.016;8.346;2022-11-15T06:44:34;10.00;91.00
1978;DHT22;989;53.016;8.346;2022-11-15T06:47:00;10.10;92.00
1978;DHT22;989;53.016;8.346;2022-11-15T06:49:26;10.10;92.70
1978;DHT22;989;53.016;8.346;2022-11-15T06:51:51;10.20;93.20
1978;DHT22;989;53.016;8.346;2022-11-15T06:54:17;10.20;93.00
1978;DHT22;989;53.016;8.346;2022-11-15T06:56:42;10.20;93.00
1978;DHT22;989;53.016;8.346;2022-11-15T06:59:08;10.30;94.10
1978;DHT22;989;53.016;8.346;2022-11-15T07:01:34;10.30;92.90
1978;DHT22;989;53.016;8.346;2022-11-15T07:03:59;10.30;92.90
1978;DHT22;989;53.016;8.346;2022-11-15T07:06:25;10.30;93.40
1978;DHT22;989;53.016;8.346;2022-11-15T07:08:51;10.30;92.60
1978;DHT22;989;53.016;8.346;2022-11-15T07:11:16;10.30;93.10
1978;DHT22;989;53.016;8.346;2022-11-15T07:13:42;10.20;93.50
1978;DHT22;989;53.016;8.346;2022-11-15T07:16:09;10.20;94.10
1978;DHT22;989;53.016;8.346;2022-11-15T07:18:39;10.20;94.70
1978;DHT22;989;53.016;8.346;2022-11-15T07:21:07;10.30;95.90
1978;DHT22;989;53.016;8.346;2022-11-15T07:23:38;10.40;96.40
1978;DHT22;989;53.016;8.346;2022-11-15T07:26:05;10.50;96.30
1978;DHT22;989;53.016;8.346;2022-11-15T07:28:32;10.60;96.40
1978;DHT22;989;53.016;8.346;2022-11-15T07:30:57;10.70;96.30
1978;DHT22;989;53.016;8.346;2022-11-15T07:33:23;10.70;94.70
1978;DHT22;989;53.016;8.346;2022-11-15T07:35:48;10.80;94.60
1978;DHT22;989;53.016;8.346;2022-11-15T07:38:14;10.90;94.10
1978;DHT22;989;53.016;8.346;2022-11-15T07:40:41;10.90;93.10
1978;DHT22;989;53.016;8.346;2022-11-15T07:43:07;11.00;91.40
1978;DHT22;989;53.016;8.346;2022-11-15T07:45:34;11.10;91.20
1978;DHT22;989;53.016;8.346;2022-11-15T07:48:06;11.10;90.00
1978;DHT22;989;53.016;8.346;2022-11-15T07:50:31;11.20;88.40
1978;DHT22;989;53.016;8.346;2022-11-15T07:52:58;11.20;86.30
1978;DHT22;989;53.016;8.346;2022-11-15T07:55:26;11.20;84.70
1978;DHT22;989;53.016;8.346;2022-11-15T07:58:09;11.20;85.40
1978;DHT22;989;53.016;8.346;2022-11-15T08:00:37;11.20;85.30
1978;DHT22;989;53.016;8.346;2022-11-15T08:05:30;11.10;86.20
1978;DHT22;989;53.016;8.346;2022-11-15T08:07:56;11.20;88.30
1978;DHT22;989;53.016;8.346;2022-11-15T08:10:22;11.20;88.50
1978;DHT22;989;53.016;8.346;2022-11-15T08:12:57;11.20;90.70
1978;DHT22;989;53.016;8.346;2022-11-15T08:15:26;11.30;89.90
1978;DHT22;989;53.016;8.346;2022-11-15T08:18:00;11.30;90.00
1978;DHT22;989;53.016;8.346;2022-11-15T08:20:29;11.20;88.20
1978;DHT22;989;53.016;8.346;2022-11-15T08:22:59;11.20;88.90
1978;DHT22;989;53.016;8.346;2022-11-15T08:25:27;11.20;90.60
1978;DHT22;989;53.016;8.346;2022-11-15T08:27:54;11.30;91.40
1978;DHT22;989;53.016;8.346;2022-11-15T08:30:22;11.30;91.20
1978;DHT22;989;53.016;8.346;2022-11-15T08:32:49;11.40;92.10
1978;DHT22;989;53.016;8.346;2022-11-15T08:35:16;11.60;90.60
1978;DHT22;989;53.016;8.346;2022-11-15T08:37:42;11.70;89.20
1978;DHT22;989;53.016;8.346;2022-11-15T08:40:08;11.70;83.40
1978;DHT22;989;53.016;8.346;2022-11-15T08:42:35;11.70;83.20
1978;DHT22;989;53.016;8.346;2022-11-15T08:45:01;11.80;82.00
1978;DHT22;989;53.016;8.346;2022-11-15T08:47:27;11.80;81.00
1978;DHT22;989;53.016;8.346;2022-11-15T08:49:53;11.70;79.10
1978;DHT22;989;53.016;8.346;2022-11-15T08:52:19;11.70;80.50
1978;DHT22;989;53.016;8.346;2022-11-15T08:54:44;11.80;79.70
1978;DHT22;989;53.016;8.346;2022-11-15T08:57:10;11.80;78.00
1978;DHT22;989;53.016;8.346;2022-11-15T08:59:36;11.80;78.10
1978;DHT22;989;53.016;8.346;2022-11-15T09:02:02;11.80;78.10
1978;DHT22;989;53.016;8.346;2022-11-15T09:04:28;11.80;79.10
1978;DHT22;989;53.016;8.346;2022-11-15T09:06:54;11.80;77.90
1978;DHT22;989;53.016;8.346;2022-11-15T09:09:19;11.90;77.60
1978;DHT22;989;53.016;8.346;2022-11-15T09:11:45;12.10;77.30
1978;DHT22;989;53.016;8.346;2022-11-15T09:14:12;12.10;72.40
1978;DHT22;989;53.016;8.346;2022-11-15T09:16:38;12.30;70.40
1978;DHT22;989;53.016;8.346;2022-11-15T09:19:04;12.60;67.30
1978;DHT22;989;53.016;8.346;2022-11-15T09:21:30;12.70;60.20
1978;DHT22;989;53.016;8.346;2022-11-15T09:23:56;12.80;56.30
1978;DHT22;989;53.016;8.346;2022-11-15T09:26:22;12.90;53.60
1978;DHT22;989;53.016;8.346;2022-11-15T09:28:48;13.20;51.70
1978;DHT22;989;53.016;8.346;2022-11-15T09:31:13;13.30;41.20
1978;DHT22;989;53.016;8.346;2022-11-15T09:33:39;13.20;40.50
1978;DHT22;989;53.016;8.346;2022-11-15T09:36:07;13.20;39.90
1978;DHT22;989;53.016;8.346;2022-11-15T09:38:34;13.20;40.00
1978;DHT22;989;53.016;8.346;2022-11-15T09:50:11;13.40;31.60
1978;DHT22;989;53.016;8.346;2022-11-15T09:52:43;13.50;29.80
1978;DHT22;989;53.016;8.346;2022-11-15T09:55:11;13.50;28.80
1978;DHT22;989;53.016;8.346;2022-11-15T09:58:22;13.60;28.90
1978;DHT22;989;53.016;8.346;2022-11-15T10:00:52;13.90;24.40
1978;DHT22;989;53.016;8.346;2022-11-15T10:03:33;14.00;19.10
1978;DHT22;989;53.016;8.346;2022-11-15T10:06:05;14.00;19.50
1978;DHT22;989;53.016;8.346;2022-11-15T10:11:35;14.10;16.60
1978;DHT22;989;53.016;8.346;2022-11-15T10:14:08;14.20;17.90
1978;DHT22;989;53.016;8.346;2022-11-15T10:22:38;14.20;13.00
1978;DHT22;989;53.016;8.346;2022-11-15T10:25:20;14.20;14.10
1978;DHT22;989;53.016;8.346;2022-11-15T10:27:59;14.10;14.40
1978;DHT22;989;53.016;8.346;2022-11-15T10:30:51;14.10;17.30
1978;DHT22;989;53.016;8.346;2022-11-15T10:33:36;14.10;18.60
1978;DHT22;989;53.016;8.346;2022-11-15T10:46:37;14.20;18.30
1978;DHT22;989;53.016;8.346;2022-11-15T10:49:28;14.30;12.40
1978;DHT22;989;53.016;8.346;2022-11-15T10:54:46;14.40;11.30
1978;DHT22;989;53.016;8.346;2022-11-15T10:57:19;14.50;11.10
1978;DHT22;989;53.016;8.346;2022-11-15T10:59:52;14.70;10.00
1978;DHT22;989;53.016;8.346;2022-11-15T11:04:59;15.00;5.50
1978;DHT22;989;53.016;8.346;2022-11-15T11:07:29;15.00;4.30
1978;DHT22;989;53.016;8.346;2022-11-15T11:10:18;15.00;4.00
1978;DHT22;989;53.016;8.346;2022-11-15T11:12:45;14.90;5.70
1978;DHT22;989;53.016;8.346;2022-11-15T11:15:14;14.90;5.90
1978;DHT22;989;53.016;8.346;2022-11-15T11:17:57;14.80;5.20
1978;DHT22;989;53.016;8.346;2022-11-15T11:20:34;14.80;6.30
1978;DHT22;989;53.016;8.346;2022-11-15T11:38:34;16.00;1.00
1978;DHT22;989;53.016;8.346;2022-11-15T11:41:20;16.60;1.00
1978;DHT22;989;53.016;8.346;2022-11-15T11:44:26;16.30;1.00
1978;DHT22;989;53.016;8.346;2022-11-15T11:47:02;16.20;1.00
1978;DHT22;989;53.016;8.346;2022-11-15T11:52:43;15.80;1.00
1978;DHT22;989;53.016;8.346;2022-11-15T11:55:23;15.70;1.00
1978;DHT22;989;53.016;8.346;2022-11-15T11:58:22;15.70;1.00
1978;DHT22;989;53.016;8.346;2022-11-15T12:01:20;15.90;1.00
1978;DHT22;989;53.016;8.346;2022-11-15T12:09:36;15.80;1.00
1978;DHT22;989;53.016;8.346;2022-11-15T12:15:04;15.40;1.00
1978;DHT22;989;53.016;8.346;2022-11-15T12:17:41;15.20;1.00
1978;DHT22;989;53.016;8.346;2022-11-15T12:25:46;14.90;1.00
1978;DHT22;989;53.016;8.346;2022-11-15T12:30:52;14.70;1.00
1978;DHT22;989;53.016;8.346;2022-11-15T12:33:36;14.70;1.00
1978;DHT22;989;53.016;8.346;2022-11-15T12:36:09;15.00;1.00
1978;DHT22;989;53.016;8.346;2022-11-15T12:38:56;15.10;1.00
1978;DHT22;989;53.016;8.346;2022-11-15T12:59:56;14.80;1.00
1978;DHT22;989;53.016;8.346;2022-11-15T13:02:40;14.70;1.00
1978;DHT22;989;53.016;8.346;2022-11-15T13:10:29;14.50;1.00
1978;DHT22;989;53.016;8.346;2022-11-15T13:13:02;14.50;1.00
1978;DHT22;989;53.016;8.346;2022-11-15T13:15:36;14.50;1.00
1978;DHT22;989;53.016;8.346;2022-11-15T13:18:33;14.40;1.00
1978;DHT22;989;53.016;8.346;2022-11-15T13:21:02;14.40;1.00
1978;DHT22;989;53.016;8.346;2022-11-15T13:23:53;14.50;1.00
1978;DHT22;989;53.016;8.346;2022-11-15T13:26:19;14.60;1.00
1978;DHT22;989;53.016;8.346;2022-11-15T13:28:48;14.60;1.00
1978;DHT22;989;53.016;8.346;2022-11-15T13:31:29;14.60;1.00
1978;DHT22;989;53.016;8.346;2022-11-15T13:34:02;14.60;1.00
1978;DHT22;989;53.016;8.346;2022-11-15T13:36:39;14.60;1.00
1978;DHT22;989;53.016;8.346;2022-11-15T13:39:26;14.60;1.00
1978;DHT22;989;53.016;8.346;2022-11-15T13:41:52;14.60;1.00
1978;DHT22;989;53.016;8.346;2022-11-15T13:44:24;14.50;1.00
1978;DHT22;989;53.016;8.346;2022-11-15T13:49:33;14.20;1.00
1978;DHT22;989;53.016;8.346;2022-11-15T13:52:00;14.20;1.00
1978;DHT22;989;53.016;8.346;2022-11-15T13:54:43;14.10;1.00
1978;DHT22;989;53.016;8.346;2022-11-15T14:00:21;13.80;1.00
1978;DHT22;989;53.016;8.346;2022-11-15T14:02:56;13.70;1.00
1978;DHT22;989;53.016;8.346;2022-11-15T14:05:24;13.50;1.00
1978;DHT22;989;53.016;8.346;2022-11-15T14:10:44;13.40;1.00
1978;DHT22;989;53.016;8.346;2022-11-15T14:13:30;13.20;1.00
1978;DHT22;989;53.016;8.346;2022-11-15T14:16:20;13.10;1.00
1978;DHT22;989;53.016;8.346;2022-11-15T14:18:51;13.00;1.00
1978;DHT22;989;53.016;8.346;2022-11-15T14:21:18;12.90;1.00
1978;DHT22;989;53.016;8.346;2022-11-15T14:23:45;12.80;1.00
1978;DHT22;989;53.016;8.346;2022-11-15T14:26:33;12.70;1.00
1978;DHT22;989;53.016;8.346;2022-11-15T14:31:51;12.40;1.00
1978;DHT22;989;53.016;8.346;2022-11-15T14:34:18;12.30;1.00
1978;DHT22;989;53.016;8.346;2022-11-15T14:36:43;12.00;1.00
1978;DHT22;989;53.016;8.346;2022-11-15T14:39:09;11.80;1.00
1978;DHT22;989;53.016;8.346;2022-11-15T14:41:36;11.60;1.00
1978;DHT22;989;53.016;8.346;2022-11-15T14:44:05;11.50;1.00
1978;DHT22;989;53.016;8.346;2022-11-15T14:46:31;11.50;1.00
1978;DHT22;989;53.016;8.346;2022-11-15T14:48:57;11.40;3.10
1978;DHT22;989;53.016;8.346;2022-11-15T14:51:23;11.40;2.70
1978;DHT22;989;53.016;8.346;2022-11-15T14:53:49;11.40;2.70
1978;DHT22;989;53.016;8.346;2022-11-15T14:56:15;11.40;1.00
1978;DHT22;989;53.016;8.346;2022-11-15T14:58:42;11.40;1.00
1978;DHT22;989;53.016;8.346;2022-11-15T15:01:26;11.40;1.00
1978;DHT22;989;53.016;8.346;2022-11-15T15:03:53;11.40;1.00
1978;DHT22;989;53.016;8.346;2022-11-15T15:06:22;11.30;1.00
1978;DHT22;989;53.016;8.346;2022-11-15T15:08:48;11.30;1.00
1978;DHT22;989;53.016;8.346;2022-11-15T15:11:25;11.20;1.00
1978;DHT22;989;53.016;8.346;2022-11-15T15:13:53;11.20;1.00
1978;DHT22;989;53.016;8.346;2022-11-15T15:16:22;11.10;1.00
1978;DHT22;989;53.016;8.346;2022-11-15T15:18:49;10.90;1.00
1978;DHT22;989;53.016;8.346;2022-11-15T15:21:26;10.90;1.00
1978;DHT22;989;53.016;8.346;2022-11-15T15:23:53;10.80;1.00
1978;DHT22;989;53.016;8.346;2022-11-15T15:26:20;10.70;1.00
1978;DHT22;989;53.016;8.346;2022-11-15T15:28:46;10.80;1.00
1978;DHT22;989;53.016;8.346;2022-11-15T15:31:14;10.70;1.00
1978;DHT22;989;53.016;8.346;2022-11-15T15:33:40;10.80;1.00
1978;DHT22;989;53.016;8.346;2022-11-15T15:36:12;10.80;1.00
1978;DHT22;989;53.016;8.346;2022-11-15T15:38:39;10.70;1.00
1978;DHT22;989;53.016;8.346;2022-11-15T15:41:14;10.60;1.00
1978;DHT22;989;53.016;8.346;2022-11-15T15:43:41;10.70;1.00
1978;DHT22;989;53.016;8.346;2022-11-15T15:46:18;10.60;1.00
1978;DHT22;989;53.016;8.346;2022-11-15T15:48:44;10.50;1.00
1978;DHT22;989;53.016;8.346;2022-11-15T15:51:10;10.50;1.00
1978;DHT22;989;53.016;8.346;2022-11-15T15:53:37;10.50;1.00
1978;DHT22;989;53.016;8.346;2022-11-15T15:56:03;10.50;1.00
1978;DHT22;989;53.016;8.346;2022-11-15T15:58:29;10.50;1.00
1978;DHT22;989;53.016;8.346;2022-11-15T16:00:57;10.50;1.00
1978;DHT22;989;53.016;8.346;2022-11-15T16:03:22;10.50;1.00
1978;DHT22;989;53.016;8.346;2022-11-15T16:05:50;10.60;1.00
1978;DHT22;989;53.016;8.346;2022-11-15T16:08:24;10.60;1.00
1978;DHT22;989;53.016;8.346;2022-11-15T16:10:52;10.60;1.00
1978;DHT22;989;53.016;8.346;2022-11-15T16:13:17;10.60;1.60
1978;DHT22;989;53.016;8.346;2022-11-15T16:15:44;10.60;3.30
1978;DHT22;989;53.016;8.346;2022-11-15T16:18:15;10.50;3.00
1978;DHT22;989;53.016;8.346;2022-11-15T16:20:44;10.40;5.10
1978;DHT22;989;53.016;8.346;2022-11-15T16:23:17;10.30;6.20
1978;DHT22;989;53.016;8.346;2022-11-15T16:25:52;10.20;8.30
1978;DHT22;989;53.016;8.346;2022-11-15T16:28:32;10.20;9.10
1978;DHT22;989;53.016;8.346;2022-11-15T16:31:08;10.20;11.10
1978;DHT22;989;53.016;8.346;2022-11-15T16:33:34;10.30;11.70
1978;DHT22;989;53.016;8.346;2022-11-15T16:36:02;10.20;10.70
1978;DHT22;989;53.016;8.346;2022-11-15T16:38:29;10.20;12.70
1978;DHT22;989;53.016;8.346;2022-11-15T16:40:54;10.20;12.20
1978;DHT22;989;53.016;8.346;2022-11-15T16:43:20;10.30;13.60
1978;DHT22;989;53.016;8.346;2022-11-15T16:45:46;10.30;14.30
1978;DHT22;989;53.016;8.346;2022-11-15T16:48:21;10.40;14.50
1978;DHT22;989;53.016;8.346;2022-11-15T16:50:50;10.50;13.80
1978;DHT22;989;53.016;8.346;2022-11-15T16:53:16;10.50;12.80
1978;DHT22;989;53.016;8.346;2022-11-15T16:55:41;10.50;13.70
1978;DHT22;989;53.016;8.346;2022-11-15T16:58:08;10.40;15.40
1978;DHT22;989;53.016;8.346;2022-11-15T17:00:34;10.40;16.20
1978;DHT22;989;53.016;8.346;2022-11-15T17:03:00;10.30;18.00
1978;DHT22;989;53.016;8.346;2022-11-15T17:05:28;10.30;20.40
1978;DHT22;989;53.016;8.346;2022-11-15T17:07:54;10.20;23.60
1978;DHT22;989;53.016;8.346;2022-11-15T17:10:24;10.20;24.90
1978;DHT22;989;53.016;8.346;2022-11-15T17:12:51;10.30;26.30
1978;DHT22;989;53.016;8.346;2022-11-15T17:15:17;10.30;27.20
1978;DHT22;989;53.016;8.346;2022-11-15T17:17:44;10.30;28.60
1978;DHT22;989;53.016;8.346;2022-11-15T17:20:14;10.40;29.30
1978;DHT22;989;53.016;8.346;2022-11-15T17:22:41;10.40;31.60
1978;DHT22;989;53.016;8.346;2022-11-15T17:25:07;10.50;32.40
1978;DHT22;989;53.016;8.346;2022-11-15T17:27:34;10.60;33.70
1978;DHT22;989;53.016;8.346;2022-11-15T17:30:00;10.70;32.70
1978;DHT22;989;53.016;8.346;2022-11-15T17:32:25;10.80;31.00
1978;DHT22;989;53.016;8.346;2022-11-15T17:34:51;10.80;32.20
1978;DHT22;989;53.016;8.346;2022-11-15T17:37:17;10.90;31.70
1978;DHT22;989;53.016;8.346;2022-11-15T17:39:42;10.90;33.20
1978;DHT22;989;53.016;8.346;2022-11-15T17:42:08;11.00;33.10
1978;DHT22;989;53.016;8.346;2022-11-15T17:44:34;11.00;33.00
1978;DHT22;989;53.016;8.346;2022-11-15T17:46:59;11.10;32.80
1978;DHT22;989;53.016;8.346;2022-11-15T17:49:25;11.10;33.50
1978;DHT22;989;53.016;8.346;2022-11-15T17:51:51;11.10;35.30
1978;DHT22;989;53.016;8.346;2022-11-15T17:54:17;11.10;33.90
1978;DHT22;989;53.016;8.346;2022-11-15T17:56:43;11.10;33.80
1978;DHT22;989;53.016;8.346;2022-11-15T17:59:08;11.10;35.10
1978;DHT22;989;53.016;8.346;2022-11-15T18:01:36;11.10;36.40
1978;DHT22;989;53.016;8.346;2022-11-15T18:04:06;11.10;37.80
1978;DHT22;989;53.016;8.346;2022-11-15T18:06:33;11.00;38.60
1978;DHT22;989;53.016;8.346;2022-11-15T18:09:00;11.00;39.80
1978;DHT22;989;53.016;8.346;2022-11-15T18:11:47;10.90;41.40
1978;DHT22;989;53.016;8.346;2022-11-15T18:14:17;10.80;43.60
1978;DHT22;989;53.016;8.346;2022-11-15T18:16:43;10.70;46.70
1978;DHT22;989;53.016;8.346;2022-11-15T18:19:09;10.70;48.30
1978;DHT22;989;53.016;8.346;2022-11-15T18:21:39;10.60;52.00
1978;DHT22;989;53.016;8.346;2022-11-15T18:24:32;10.60;53.50
1978;DHT22;989;53.016;8.346;2022-11-15T18:27:00;10.60;55.30
1978;DHT22;989;53.016;8.346;2022-11-15T18:29:27;10.60;56.50
1978;DHT22;989;53.016;8.346;2022-11-15T18:31:53;10.50;58.00
1978;DHT22;989;53.016;8.346;2022-11-15T18:34:24;10.50;59.90
1978;DHT22;989;53.016;8.346;2022-11-15T18:37:01;10.60;62.90
1978;DHT22;989;53.016;8.346;2022-11-15T18:39:27;10.70;62.00
1978;DHT22;989;53.016;8.346;2022-11-15T18:41:53;10.80;59.20
1978;DHT22;989;53.016;8.346;2022-11-15T18:44:19;10.90;58.10
1978;DHT22;989;53.016;8.346;2022-11-15T18:46:45;11.00;54.40